sensor_id;sensor_type;location;lat;lon;timestamp;pressure;altitude;pressure_sealevel;temperature;humidity
51617;BME280;37697;52.588;13.394;2023-04-10T00:00:44;102140.05;;;2.63;76.94
51617;BME280;37697;52.588;13.394;2023-04-10T00:06:10;102137.49;;;2.55;77.26
51617;BME280;37697;52.588;13.394;2023-04-10T00:11:35;102134.48;;;2.46;77.15
51617;BME280;37697;52.588;13.394;2023-04-10T00:17:01;102132.60;;;2.42;77.31
51617;BME280;37697;52.588;13.394;2023-04-10T00:22:27;102125.52;;;2.39;77.42
51617;BME280;37697;52.588;13.394;2023-04-10T00:27:53;102121.09;;;2.34;77.50
51617;BME280;37697;52.588;13.394;2023-04-10T00:33:19;102116.58;;;2.33;77.62
51617;BME280;37697;52.588;13.394;2023-04-10T00:38:46;102112.66;;;2.31;77.65
51617;BME280;37697;52.588;13.394;2023-04-10T00:44:05;102103.54;;;2.27;77.72
51617;BME280;37697;52.588;13.394;2023-04-10T00:49:23;102100.46;;;2.20;77.66
51617;BME280;37697;52.588;13.394;2023-04-10T00:54:49;102094.64;;;2.14;77.58
51617;BME280;37697;52.588;13.394;2023-04-10T01:00:16;102092.57;;;2.07;77.71
51617;BME280;37697;52.588;13.394;2023-04-10T01:05:46;102093.27;;;1.94;77.76
51617;BME280;37697;52.588;13.394;2023-04-10T01:11:26;102098.70;;;1.81;77.94
51617;BME280;37697;52.588;13.394;2023-04-10T01:16:59;102094.84;;;1.79;78.10
51617;BME280;37697;52.588;13.394;2023-04-10T01:22:31;102095.10;;;1.78;78.12
51617;BME280;37697;52.588;13.394;2023-04-10T01:28:10;102091.81;;;1.70;78.27
51617;BME280;37697;52.588;13.394;2023-04-10T01:33:45;102088.02;;;1.62;78.26
51617;BME280;37697;52.588;13.394;2023-04-10T01:39:12;102091.35;;;1.62;78.35
51617;BME280;37697;52.588;13.394;2023-04-10T01:44:43;102094.34;;;1.57;78.21
51617;BME280;37697;52.588;13.394;2023-04-10T01:50:10;102090.58;;;1.44;78.45
51617;BME280;37697;52.588;13.394;2023-04-10T01:55:36;102083.48;;;1.41;78.50
51617;BME280;37697;52.588;13.394;2023-04-10T02:01:03;102075.80;;;1.38;78.73
51617;BME280;37697;52.588;13.394;2023-04-10T02:06:43;102078.84;;;1.34;78.69
51617;BME280;37697;52.588;13.394;2023-04-10T02:12:15;102086.98;;;1.30;78.68
51617;BME280;37697;52.588;13.394;2023-04-10T02:17:42;102085.63;;;1.16;78.81
51617;BME280;37697;52.588;13.394;2023-04-10T02:22:49;102081.46;;;1.12;78.78
51617;BME280;37697;52.588;13.394;2023-04-10T02:28:15;102077.66;;;1.11;79.04
51617;BME280;37697;52.588;13.394;2023-04-10T02:33:40;102086.67;;;1.08;79.00
51617;BME280;37697;52.588;13.394;2023-04-10T02:39:07;102086.59;;;1.03;79.02
51617;BME280;37697;52.588;13.394;2023-04-10T02:44:23;102082.38;;;1.05;79.38
51617;BME280;37697;52.588;13.394;2023-04-10T02:49:49;102082.83;;;1.06;79.42
51617;BME280;37697;52.588;13.394;2023-04-10T02:55:15;102087.91;;;0.98;79.17
51617;BME280;37697;52.588;13.394;2023-04-10T03:00:40;102090.92;;;0.82;79.30
51617;BME280;37697;52.588;13.394;2023-04-10T03:06:12;102092.14;;;0.78;79.47
51617;BME280;37697;52.588;13.394;2023-04-10T03:11:30;102091.34;;;0.79;79.48
51617;BME280;37697;52.588;13.394;2023-04-10T03:16:56;102098.00;;;0.72;79.37
51617;BME280;37697;52.588;13.394;2023-04-10T03:22:21;102095.45;;;0.58;79.59
51617;BME280;37697;52.588;13.394;2023-04-10T03:27:39;102096.40;;;0.55;79.84
51617;BME280;37697;52.588;13.394;2023-04-10T03:33:03;102089.31;;;0.56;79.80
51617;BME280;37697;52.588;13.394;2023-04-10T03:38:29;102091.48;;;0.56;79.74
51617;BME280;37697;52.588;13.394;2023-04-10T03:43:54;102089.77;;;0.52;79.61
51617;BME280;37697;52.588;13.394;2023-04-10T03:49:20;102092.29;;;0.51;80.02
51617;BME280;37697;52.588;13.394;2023-04-10T03:54:38;102093.58;;;0.46;79.88
51617;BME280;37697;52.588;13.394;2023-04-10T04:00:05;102090.42;;;0.42;79.76
51617;BME280;37697;52.588;13.394;2023-04-10T04:05:31;102090.28;;;0.43;80.03
51617;BME280;37697;52.588;13.394;2023-04-10T04:10:57;102087.95;;;0.44;80.06
51617;BME280;37697;52.588;13.394;2023-04-10T04:16:22;102085.80;;;0.47;80.13
51617;BME280;37697;52.588;13.394;2023-04-10T04:21:48;102086.52;;;0.47;80.11
51617;BME280;37697;52.588;13.394;2023-04-10T04:27:14;102085.91;;;0.47;80.02
51617;BME280;37697;52.588;13.394;2023-04-10T04:32:40;102088.27;;;0.43;80.00
51617;BME280;37697;52.588;13.394;2023-04-10T04:38:05;102092.05;;;0.38;80.24
51617;BME280;37697;52.588;13.394;2023-04-10T04:43:24;102090.24;;;0.38;80.39
51617;BME280;37697;52.588;13.394;2023-04-10T04:48:50;102089.23;;;0.47;80.75
51617;BME280;37697;52.588;13.394;2023-04-10T04:54:15;102090.52;;;0.56;80.89
51617;BME280;37697;52.588;13.394;2023-04-10T04:59:41;102089.70;;;0.59;80.74
51617;BME280;37697;52.588;13.394;2023-04-10T05:05:08;102084.42;;;0.65;81.19
51617;BME280;37697;52.588;13.394;2023-04-10T05:10:33;102090.58;;;0.75;81.50
51617;BME280;37697;52.588;13.394;2023-04-10T05:15:59;102092.02;;;0.86;81.79
51617;BME280;37697;52.588;13.394;2023-04-10T05:21:25;102091.73;;;1.11;82.26
51617;BME280;37697;52.588;13.394;2023-04-10T05:26:43;102093.62;;;1.36;82.41
51617;BME280;37697;52.588;13.394;2023-04-10T05:32:09;102096.23;;;1.78;83.44
51617;BME280;37697;52.588;13.394;2023-04-10T05:37:27;102102.78;;;2.30;83.92
51617;BME280;37697;52.588;13.394;2023-04-10T05:42:53;102107.46;;;2.86;84.34
51617;BME280;37697;52.588;13.394;2023-04-10T05:48:18;102095.67;;;3.43;84.60
51617;BME280;37697;52.588;13.394;2023-04-10T05:53:44;102092.02;;;4.07;83.97
51617;BME280;37697;52.588;13.394;2023-04-10T05:59:10;102096.30;;;4.78;83.60
51617;BME280;37697;52.588;13.394;2023-04-10T06:04:35;102084.41;;;5.44;83.75
51617;BME280;37697;52.588;13.394;2023-04-10T06:10:02;102089.48;;;6.20;83.02
51617;BME280;37697;52.588;13.394;2023-04-10T06:15:28;102090.64;;;7.07;82.18
51617;BME280;37697;52.588;13.394;2023-04-10T06:20:54;102083.31;;;7.83;80.61
51617;BME280;37697;52.588;13.394;2023-04-10T06:26:20;102078.56;;;8.51;79.44
51617;BME280;37697;52.588;13.394;2023-04-10T06:31:38;102072.10;;;8.93;78.25
51617;BME280;37697;52.588;13.394;2023-04-10T06:36:56;102073.77;;;9.32;76.92
51617;BME280;37697;52.588;13.394;2023-04-10T06:42:23;102069.25;;;9.38;76.06
51617;BME280;37697;52.588;13.394;2023-04-10T06:47:48;102065.73;;;9.42;75.82
51617;BME280;37697;52.588;13.394;2023-04-10T06:53:14;102062.34;;;9.47;75.54
51617;BME280;37697;52.588;13.394;2023-04-10T06:58:40;102061.69;;;9.73;75.74
51617;BME280;37697;52.588;13.394;2023-04-10T07:04:06;102062.80;;;10.01;75.56
51617;BME280;37697;52.588;13.394;2023-04-10T07:09:31;102064.08;;;10.25;75.01
51617;BME280;37697;52.588;13.394;2023-04-10T07:14:57;102058.20;;;10.39;74.21
51617;BME280;37697;52.588;13.394;2023-04-10T07:20:23;102060.09;;;10.60;73.86
51617;BME280;37697;52.588;13.394;2023-04-10T07:25:49;102064.52;;;10.68;73.71
51617;BME280;37697;52.588;13.394;2023-04-10T07:31:06;102067.69;;;10.79;73.65
51617;BME280;37697;52.588;13.394;2023-04-10T07:36:32;102063.98;;;11.10;73.47
51617;BME280;37697;52.588;13.394;2023-04-10T07:41:50;102058.46;;;11.47;72.32
51617;BME280;37697;52.588;13.394;2023-04-10T07:47:10;102051.23;;;11.78;71.51
51617;BME280;37697;52.588;13.394;2023-04-10T07:52:16;102048.05;;;11.98;71.14
51617;BME280;37697;52.588;13.394;2023-04-10T07:57:42;102047.33;;;12.34;71.68
51617;BME280;37697;52.588;13.394;2023-04-10T08:03:07;102039.88;;;12.60;71.11
51617;BME280;37697;52.588;13.394;2023-04-10T08:08:33;102036.30;;;12.83;70.32
51617;BME280;37697;52.588;13.394;2023-04-10T08:14:00;102031.65;;;13.08;69.55
51617;BME280;37697;52.588;13.394;2023-04-10T08:19:22;102020.52;;;13.44;69.55
51617;BME280;37697;52.588;13.394;2023-04-10T08:24:42;102022.38;;;13.83;68.94
51617;BME280;37697;52.588;13.394;2023-04-10T08:30:00;102014.32;;;14.00;68.14
51617;BME280;37697;52.588;13.394;2023-04-10T08:35:26;102020.59;;;14.17;67.10
51617;BME280;37697;52.588;13.394;2023-04-10T08:40:52;102018.31;;;14.26;65.62
51617;BME280;37697;52.588;13.394;2023-04-10T08:46:18;102016.85;;;14.40;65.00
51617;BME280;37697;52.588;13.394;2023-04-10T08:51:47;102008.11;;;14.60;64.34
51617;BME280;37697;52.588;13.394;2023-04-10T08:57:16;102002.59;;;14.69;63.84
51617;BME280;37697;52.588;13.394;2023-04-10T09:02:44;102001.34;;;14.86;62.10
51617;BME280;37697;52.588;13.394;2023-04-10T09:08:11;101993.01;;;14.98;61.98
51617;BME280;37697;52.588;13.394;2023-04-10T09:13:40;101984.23;;;15.21;61.78
51617;BME280;37697;52.588;13.394;2023-04-10T09:19:06;101970.27;;;15.46;61.59
51617;BME280;37697;52.588;13.394;2023-04-10T09:24:36;101959.30;;;15.59;60.98
51617;BME280;37697;52.588;13.394;2023-04-10T09:30:02;101954.41;;;15.75;59.72
51617;BME280;37697;52.588;13.394;2023-04-10T09:35:21;101946.14;;;15.88;59.51
51617;BME280;37697;52.588;13.394;2023-04-10T09:40:47;101946.97;;;16.07;59.44
51617;BME280;37697;52.588;13.394;2023-04-10T09:46:26;101936.16;;;15.93;57.09
51617;BME280;37697;52.588;13.394;2023-04-10T09:51:51;101925.96;;;15.86;57.25
51617;BME280;37697;52.588;13.394;2023-04-10T09:57:19;101919.37;;;15.90;56.98
51617;BME280;37697;52.588;13.394;2023-04-10T10:02:45;101913.46;;;15.94;56.57
51617;BME280;37697;52.588;13.394;2023-04-10T10:08:14;101904.42;;;16.03;56.39
51617;BME280;37697;52.588;13.394;2023-04-10T10:13:36;101901.58;;;16.03;56.13
51617;BME280;37697;52.588;13.394;2023-04-10T10:19:11;101890.58;;;16.21;56.94
51617;BME280;37697;52.588;13.394;2023-04-10T10:24:36;101889.02;;;16.35;55.40
51617;BME280;37697;52.588;13.394;2023-04-10T10:30:04;101882.51;;;16.23;54.97
51617;BME280;37697;52.588;13.394;2023-04-10T10:35:35;101872.35;;;16.23;54.85
51617;BME280;37697;52.588;13.394;2023-04-10T10:41:04;101865.63;;;16.34;55.25
51617;BME280;37697;52.588;13.394;2023-04-10T10:46:39;101859.59;;;16.40;54.48
51617;BME280;37697;52.588;13.394;2023-04-10T10:52:07;101849.80;;;16.52;53.74
51617;BME280;37697;52.588;13.394;2023-04-10T10:57:49;101845.63;;;16.50;54.10
51617;BME280;37697;52.588;13.394;2023-04-10T11:03:30;101831.62;;;16.58;54.54
51617;BME280;37697;52.588;13.394;2023-04-10T11:08:56;101828.09;;;16.59;53.54
51617;BME280;37697;52.588;13.394;2023-04-10T11:14:22;101824.77;;;16.50;52.42
51617;BME280;37697;52.588;13.394;2023-04-10T11:19:59;101811.05;;;16.56;53.03
51617;BME280;37697;52.588;13.394;2023-04-10T11:25:48;101812.41;;;16.78;52.75
51617;BME280;37697;52.588;13.394;2023-04-10T11:31:16;101804.83;;;16.83;52.53
51617;BME280;37697;52.588;13.394;2023-04-10T11:36:43;101791.19;;;17.06;53.02
51617;BME280;37697;52.588;13.394;2023-04-10T11:42:09;101783.92;;;17.30;52.38
51617;BME280;37697;52.588;13.394;2023-04-10T11:47:34;101779.14;;;17.39;51.17
51617;BME280;37697;52.588;13.394;2023-04-10T11:52:54;101766.34;;;17.48;51.10
51617;BME280;37697;52.588;13.394;2023-04-10T11:58:26;101766.57;;;17.50;50.11
51617;BME280;37697;52.588;13.394;2023-04-10T12:03:52;101753.30;;;17.39;48.89
51617;BME280;37697;52.588;13.394;2023-04-10T12:09:19;101749.77;;;17.34;48.92
51617;BME280;37697;52.588;13.394;2023-04-10T12:14:45;101738.12;;;17.30;48.35
51617;BME280;37697;52.588;13.394;2023-04-10T12:20:13;101726.42;;;17.37;49.08
51617;BME280;37697;52.588;13.394;2023-04-10T12:25:39;101723.44;;;17.58;49.27
51617;BME280;37697;52.588;13.394;2023-04-10T12:31:07;101713.57;;;17.69;48.29
51617;BME280;37697;52.588;13.394;2023-04-10T12:36:33;101709.73;;;17.70;48.19
51617;BME280;37697;52.588;13.394;2023-04-10T12:42:13;101697.80;;;17.79;47.51
51617;BME280;37697;52.588;13.394;2023-04-10T12:47:31;101687.52;;;17.80;47.26
51617;BME280;37697;52.588;13.394;2023-04-10T12:53:04;101676.16;;;17.85;46.54
51617;BME280;37697;52.588;13.394;2023-04-10T12:58:31;101665.61;;;17.84;46.97
51617;BME280;37697;52.588;13.394;2023-04-10T13:03:58;101650.34;;;17.84;46.26
51617;BME280;37697;52.588;13.394;2023-04-10T13:09:24;101639.30;;;17.70;46.44
51617;BME280;37697;52.588;13.394;2023-04-10T13:14:50;101630.42;;;17.72;46.12
51617;BME280;37697;52.588;13.394;2023-04-10T13:20:16;101610.17;;;17.75;45.33
51617;BME280;37697;52.588;13.394;2023-04-10T13:25:42;101599.69;;;17.70;45.15
51617;BME280;37697;52.588;13.394;2023-04-10T13:31:06;101588.15;;;17.72;45.92
51617;BME280;37697;52.588;13.394;2023-04-10T13:36:32;101582.31;;;17.75;45.70
51617;BME280;37697;52.588;13.394;2023-04-10T13:41:58;101565.40;;;17.78;46.29
51617;BME280;37697;52.588;13.394;2023-04-10T13:47:24;101551.83;;;17.75;45.35
51617;BME280;37697;52.588;13.394;2023-04-10T13:52:50;101553.13;;;17.69;45.77
51617;BME280;37697;52.588;13.394;2023-04-10T13:58:15;101551.41;;;17.67;45.59
51617;BME280;37697;52.588;13.394;2023-04-10T14:03:41;101545.86;;;17.68;45.12
51617;BME280;37697;52.588;13.394;2023-04-10T14:09:07;101529.75;;;17.61;45.63
51617;BME280;37697;52.588;13.394;2023-04-10T14:14:33;101517.58;;;17.61;45.70
51617;BME280;37697;52.588;13.394;2023-04-10T14:19:58;101511.40;;;17.61;46.48
51617;BME280;37697;52.588;13.394;2023-04-10T14:25:24;101512.95;;;17.35;46.66
51617;BME280;37697;52.588;13.394;2023-04-10T14:30:50;101506.70;;;17.27;46.23
51617;BME280;37697;52.588;13.394;2023-04-10T14:36:16;101500.73;;;16.98;46.12
51617;BME280;37697;52.588;13.394;2023-04-10T14:41:42;101497.55;;;16.72;46.27
51617;BME280;37697;52.588;13.394;2023-04-10T14:47:07;101481.55;;;16.60;47.14
51617;BME280;37697;52.588;13.394;2023-04-10T14:52:33;101467.27;;;16.86;47.02
51617;BME280;37697;52.588;13.394;2023-04-10T14:57:59;101455.23;;;16.97;46.84
51617;BME280;37697;52.588;13.394;2023-04-10T15:03:25;101454.05;;;16.99;46.60
51617;BME280;37697;52.588;13.394;2023-04-10T15:08:51;101443.48;;;16.91;46.81
51617;BME280;37697;52.588;13.394;2023-04-10T15:14:16;101434.35;;;16.83;47.08
51617;BME280;37697;52.588;13.394;2023-04-10T15:19:42;101421.86;;;16.87;46.61
51617;BME280;37697;52.588;13.394;2023-04-10T15:25:09;101415.67;;;16.83;47.01
51617;BME280;37697;52.588;13.394;2023-04-10T15:30:37;101409.98;;;16.68;46.94
51617;BME280;37697;52.588;13.394;2023-04-10T15:36:05;101408.90;;;16.62;46.67
51617;BME280;37697;52.588;13.394;2023-04-10T15:41:31;101397.70;;;16.54;46.26
51617;BME280;37697;52.588;13.394;2023-04-10T15:46:57;101381.73;;;16.58;46.57
51617;BME280;37697;52.588;13.394;2023-04-10T15:52:23;101377.14;;;16.75;46.37
51617;BME280;37697;52.588;13.394;2023-04-10T15:57:48;101363.85;;;16.85;46.00
51617;BME280;37697;52.588;13.394;2023-04-10T16:03:14;101356.77;;;16.74;45.55
51617;BME280;37697;52.588;13.394;2023-04-10T16:08:41;101345.09;;;16.55;45.38
51617;BME280;37697;52.588;13.394;2023-04-10T16:14:10;101334.68;;;16.31;45.46
51617;BME280;37697;52.588;13.394;2023-04-10T16:19:36;101328.14;;;16.06;45.10
51617;BME280;37697;52.588;13.394;2023-04-10T16:25:02;101318.02;;;15.93;44.68
51617;BME280;37697;52.588;13.394;2023-04-10T16:30:27;101302.67;;;15.81;45.27
51617;BME280;37697;52.588;13.394;2023-04-10T16:35:53;101299.85;;;15.81;45.82
51617;BME280;37697;52.588;13.394;2023-04-10T16:41:19;101296.00;;;15.79;45.44
51617;BME280;37697;52.588;13.394;2023-04-10T16:46:34;101290.60;;;15.67;45.48
51617;BME280;37697;52.588;13.394;2023-04-10T16:52:01;101282.08;;;15.63;45.91
51617;BME280;37697;52.588;13.394;2023-04-10T16:57:26;101274.52;;;15.58;45.96
51617;BME280;37697;52.588;13.394;2023-04-10T17:02:52;101264.74;;;15.52;45.70
51617;BME280;37697;52.588;13.394;2023-04-10T17:08:18;101262.60;;;15.40;46.10
51617;BME280;37697;52.588;13.394;2023-04-10T17:13:44;101246.63;;;15.26;45.86
51617;BME280;37697;52.588;13.394;2023-04-10T17:19:10;101233.52;;;15.12;46.14
51617;BME280;37697;52.588;13.394;2023-04-10T17:24:34;101233.70;;;15.00;46.57
51617;BME280;37697;52.588;13.394;2023-04-10T17:30:00;101227.67;;;14.90;46.63
51617;BME280;37697;52.588;13.394;2023-04-10T17:35:25;101218.77;;;14.81;46.92
51617;BME280;37697;52.588;13.394;2023-04-10T17:40:50;101207.05;;;14.71;46.90
51617;BME280;37697;52.588;13.394;2023-04-10T17:46:17;101201.08;;;14.63;47.00
51617;BME280;37697;52.588;13.394;2023-04-10T17:51:42;101188.87;;;14.54;46.81
51617;BME280;37697;52.588;13.394;2023-04-10T17:57:08;101183.75;;;14.45;47.21
51617;BME280;37697;52.588;13.394;2023-04-10T18:02:34;101172.92;;;14.32;47.32
51617;BME280;37697;52.588;13.394;2023-04-10T18:07:59;101168.64;;;14.23;47.25
51617;BME280;37697;52.588;13.394;2023-04-10T18:13:25;101159.33;;;14.15;47.41
51617;BME280;37697;52.588;13.394;2023-04-10T18:18:51;101163.02;;;14.05;47.48
51617;BME280;37697;52.588;13.394;2023-04-10T18:24:16;101159.31;;;13.97;47.60
51617;BME280;37697;52.588;13.394;2023-04-10T18:29:42;101158.55;;;13.90;47.59
51617;BME280;37697;52.588;13.394;2023-04-10T18:35:09;101162.17;;;13.82;47.77
51617;BME280;37697;52.588;13.394;2023-04-10T18:40:35;101153.30;;;13.74;47.81
51617;BME280;37697;52.588;13.394;2023-04-10T18:46:01;101153.30;;;13.66;47.96
51617;BME280;37697;52.588;13.394;2023-04-10T18:51:27;101145.59;;;13.62;48.08
51617;BME280;37697;52.588;13.394;2023-04-10T18:56:53;101140.63;;;13.57;48.27
51617;BME280;37697;52.588;13.394;2023-04-10T19:02:17;101134.95;;;13.50;48.34
51617;BME280;37697;52.588;13.394;2023-04-10T19:07:43;101122.73;;;13.44;48.29
51617;BME280;37697;52.588;13.394;2023-04-10T19:13:10;101112.55;;;13.39;48.21
51617;BME280;37697;52.588;13.394;2023-04-10T19:18:36;101103.12;;;13.34;48.28
51617;BME280;37697;52.588;13.394;2023-04-10T19:23:54;101096.38;;;13.28;48.31
51617;BME280;37697;52.588;13.394;2023-04-10T19:29:20;101090.88;;;13.21;48.51
51617;BME280;37697;52.588;13.394;2023-04-10T19:34:46;101082.34;;;13.15;48.28
51617;BME280;37697;52.588;13.394;2023-04-10T19:40:12;101074.52;;;13.12;48.16
51617;BME280;37697;52.588;13.394;2023-04-10T19:45:38;101063.65;;;13.06;48.16
51617;BME280;37697;52.588;13.394;2023-04-10T19:51:05;101058.98;;;13.00;48.28
51617;BME280;37697;52.588;13.394;2023-04-10T19:56:31;101055.54;;;12.98;47.76
51617;BME280;37697;52.588;13.394;2023-04-10T20:01:56;101044.25;;;12.93;47.63
51617;BME280;37697;52.588;13.394;2023-04-10T20:07:21;101036.85;;;12.87;47.69
51617;BME280;37697;52.588;13.394;2023-04-10T20:12:46;101025.53;;;12.83;47.71
51617;BME280;37697;52.588;13.394;2023-04-10T20:18:13;101016.55;;;12.79;47.44
51617;BME280;37697;52.588;13.394;2023-04-10T20:23:38;101001.52;;;12.74;47.78
51617;BME280;37697;52.588;13.394;2023-04-10T20:29:04;100987.27;;;12.69;47.48
51617;BME280;37697;52.588;13.394;2023-04-10T20:34:30;100979.23;;;12.65;47.40
51617;BME280;37697;52.588;13.394;2023-04-10T20:39:56;100971.83;;;12.61;47.29
51617;BME280;37697;52.588;13.394;2023-04-10T20:45:21;100958.73;;;12.58;47.05
51617;BME280;37697;52.588;13.394;2023-04-10T20:50:47;100955.98;;;12.55;46.98
51617;BME280;37697;52.588;13.394;2023-04-10T20:56:13;100958.83;;;12.54;46.53
51617;BME280;37697;52.588;13.394;2023-04-10T21:01:56;100964.91;;;12.51;46.91
51617;BME280;37697;52.588;13.394;2023-04-10T21:07:22;100959.30;;;12.49;46.68
51617;BME280;37697;52.588;13.394;2023-04-10T21:12:48;100950.98;;;12.46;46.72
51617;BME280;37697;52.588;13.394;2023-04-10T21:18:13;100943.46;;;12.44;46.41
51617;BME280;37697;52.588;13.394;2023-04-10T21:23:39;100938.23;;;12.41;46.78
51617;BME280;37697;52.588;13.394;2023-04-10T21:29:05;100937.57;;;12.39;46.50
51617;BME280;37697;52.588;13.394;2023-04-10T21:34:31;100939.27;;;12.37;46.71
51617;BME280;37697;52.588;13.394;2023-04-10T21:39:57;100928.54;;;12.32;46.83
51617;BME280;37697;52.588;13.394;2023-04-10T21:45:14;100926.50;;;12.29;46.97
51617;BME280;37697;52.588;13.394;2023-04-10T21:50:40;100915.98;;;12.26;46.94
51617;BME280;37697;52.588;13.394;2023-04-10T21:56:06;100902.99;;;12.21;47.08
51617;BME280;37697;52.588;13.394;2023-04-10T22:01:33;100886.58;;;12.15;47.39
51617;BME280;37697;52.588;13.394;2023-04-10T22:06:59;100876.23;;;12.08;47.35
51617;BME280;37697;52.588;13.394;2023-04-10T22:12:25;100867.08;;;12.02;47.39
51617;BME280;37697;52.588;13.394;2023-04-10T22:17:52;100858.23;;;11.96;47.81
51617;BME280;37697;52.588;13.394;2023-04-10T22:23:18;100857.11;;;11.91;47.87
51617;BME280;37697;52.588;13.394;2023-04-10T22:28:44;100847.84;;;11.87;47.91
51617;BME280;37697;52.588;13.394;2023-04-10T22:34:09;100835.86;;;11.82;48.16
51617;BME280;37697;52.588;13.394;2023-04-10T22:39:35;100821.64;;;11.76;48.47
51617;BME280;37697;52.588;13.394;2023-04-10T22:45:00;100813.77;;;11.70;48.68
51617;BME280;37697;52.588;13.394;2023-04-10T22:50:16;100807.95;;;11.66;48.82
51617;BME280;37697;52.588;13.394;2023-04-10T22:55:41;100810.89;;;11.63;48.96
51617;BME280;37697;52.588;13.394;2023-04-10T23:01:08;100800.22;;;11.59;48.90
51617;BME280;37697;52.588;13.394;2023-04-10T23:06:33;100794.34;;;11.55;49.24
51617;BME280;37697;52.588;13.394;2023-04-10T23:11:59;100789.65;;;11.50;49.29
51617;BME280;37697;52.588;13.394;2023-04-10T23:17:25;100777.88;;;11.46;49.42
51617;BME280;37697;52.588;13.394;2023-04-10T23:22:51;100771.06;;;11.42;49.59
51617;BME280;37697;52.588;13.394;2023-04-10T23:28:17;100753.08;;;11.37;49.78
51617;BME280;37697;52.588;13.394;2023-04-10T23:33:41;100741.45;;;11.34;49.86
51617;BME280;37697;52.588;13.394;2023-04-10T23:39:07;100722.55;;;11.31;49.89
51617;BME280;37697;52.588;13.394;2023-04-10T23:44:33;100703.71;;;11.28;49.85
51617;BME280;37697;52.588;13.394;2023-04-10T23:49:59;100685.61;;;11.26;50.08
51617;BME280;37697;52.588;13.394;2023-04-10T23:55:25;100683.79;;;11.21;50.09
